sensor_id;sensor_type;location;lat;lon;timestamp;pressure;altitude;pressure_sealevel;temperature;humidity
72414;BME280;60995;52.154;4.498;2023-08-08T00:00:39;101862.63;;;18.92;100.00
72414;BME280;60995;52.154;4.498;2023-08-08T00:02:55;101893.34;;;18.88;100.00
72414;BME280;60995;52.154;4.498;2023-08-08T00:05:11;101927.03;;;18.81;100.00
72414;BME280;60995;52.154;4.498;2023-08-08T00:07:27;101947.13;;;18.82;100.00
72414;BME280;60995;52.154;4.498;2023-08-08T00:09:46;101966.00;;;18.77;100.00
72414;BME280;60995;52.154;4.498;2023-08-08T00:12:02;101975.25;;;18.76;100.00
72414;BME280;60995;52.154;4.498;2023-08-08T00:14:19;101984.94;;;18.80;100.00
72414;BME280;60995;52.154;4.498;2023-08-08T00:16:35;101999.69;;;18.79;100.00
72414;BME280;60995;52.154;4.498;2023-08-08T00:18:51;102021.00;;;18.85;100.00
72414;BME280;60995;52.154;4.498;2023-08-08T00:21:09;102033.84;;;18.94;100.00
72414;BME280;60995;52.154;4.498;2023-08-08T00:23:25;102041.75;;;18.97;100.00
72414;BME280;60995;52.154;4.498;2023-08-08T00:25:42;102051.81;;;18.89;100.00
72414;BME280;60995;52.154;4.498;2023-08-08T00:27:58;102064.03;;;18.68;100.00
72414;BME280;60995;52.154;4.498;2023-08-08T00:30:14;102071.50;;;18.76;100.00
72414;BME280;60995;52.154;4.498;2023-08-08T00:32:30;102072.25;;;18.86;100.00
72414;BME280;60995;52.154;4.498;2023-08-08T00:34:46;102074.75;;;18.97;100.00
72414;BME280;60995;52.154;4.498;2023-08-08T00:37:03;102080.50;;;18.86;100.00
72414;BME280;60995;52.154;4.498;2023-08-08T00:39:19;102085.91;;;18.70;100.00
72414;BME280;60995;52.154;4.498;2023-08-08T00:41:35;102132.94;;;18.66;100.00
72414;BME280;60995;52.154;4.498;2023-08-08T00:43:51;102158.63;;;18.57;100.00
72414;BME280;60995;52.154;4.498;2023-08-08T00:46:08;102174.66;;;18.44;100.00
72414;BME280;60995;52.154;4.498;2023-08-08T00:48:24;102181.56;;;18.66;100.00
72414;BME280;60995;52.154;4.498;2023-08-08T00:50:43;102200.31;;;18.71;100.00
72414;BME280;60995;52.154;4.498;2023-08-08T00:53:00;102186.75;;;18.69;100.00
72414;BME280;60995;52.154;4.498;2023-08-08T00:55:16;102190.50;;;18.68;100.00
72414;BME280;60995;52.154;4.498;2023-08-08T00:57:34;102193.50;;;18.75;100.00
72414;BME280;60995;52.154;4.498;2023-08-08T00:59:54;102180.06;;;18.72;100.00
72414;BME280;60995;52.154;4.498;2023-08-08T01:02:11;102177.00;;;18.75;100.00
72414;BME280;60995;52.154;4.498;2023-08-08T01:04:27;102173.72;;;18.71;100.00
72414;BME280;60995;52.154;4.498;2023-08-08T01:09:21;102188.94;;;18.65;100.00
72414;BME280;60995;52.154;4.498;2023-08-08T01:11:43;102187.63;;;18.70;100.00
72414;BME280;60995;52.154;4.498;2023-08-08T01:14:05;102194.75;;;18.62;100.00
72414;BME280;60995;52.154;4.498;2023-08-08T01:16:25;102183.13;;;18.68;100.00
72414;BME280;60995;52.154;4.498;2023-08-08T01:18:44;102185.88;;;18.68;100.00
72414;BME280;60995;52.154;4.498;2023-08-08T01:21:03;102176.84;;;18.76;100.00
72414;BME280;60995;52.154;4.498;2023-08-08T01:23:53;102184.31;;;18.84;100.00
72414;BME280;60995;52.154;4.498;2023-08-08T01:26:16;102194.19;;;18.77;100.00
72414;BME280;60995;52.154;4.498;2023-08-08T01:28:34;102195.22;;;18.76;100.00
72414;BME280;60995;52.154;4.498;2023-08-08T01:30:51;102193.41;;;18.66;100.00
72414;BME280;60995;52.154;4.498;2023-08-08T01:33:07;102187.34;;;18.81;100.00
72414;BME280;60995;52.154;4.498;2023-08-08T01:35:26;102183.13;;;18.68;100.00
72414;BME280;60995;52.154;4.498;2023-08-08T01:37:51;102169.16;;;18.80;100.00
72414;BME280;60995;52.154;4.498;2023-08-08T01:40:13;102162.56;;;18.73;100.00
72414;BME280;60995;52.154;4.498;2023-08-08T01:42:33;102155.06;;;18.83;100.00
72414;BME280;60995;52.154;4.498;2023-08-08T01:44:50;102144.47;;;18.88;100.00
72414;BME280;60995;52.154;4.498;2023-08-08T01:47:08;102142.97;;;18.76;100.00
72414;BME280;60995;52.154;4.498;2023-08-08T01:49:25;102136.03;;;18.63;100.00
72414;BME280;60995;52.154;4.498;2023-08-08T01:51:41;102139.16;;;18.68;100.00
72414;BME280;60995;52.154;4.498;2023-08-08T01:53:57;102115.69;;;18.82;100.00
72414;BME280;60995;52.154;4.498;2023-08-08T01:56:13;102079.72;;;18.76;100.00
72414;BME280;60995;52.154;4.498;2023-08-08T01:58:29;102047.03;;;18.64;100.00
72414;BME280;60995;52.154;4.498;2023-08-08T02:00:46;102014.69;;;18.58;100.00
72414;BME280;60995;52.154;4.498;2023-08-08T02:03:03;101993.88;;;18.56;100.00
72414;BME280;60995;52.154;4.498;2023-08-08T02:05:20;101974.16;;;18.60;100.00
72414;BME280;60995;52.154;4.498;2023-08-08T02:07:36;101964.88;;;18.61;100.00
72414;BME280;60995;52.154;4.498;2023-08-08T02:09:52;101964.88;;;18.61;100.00
72414;BME280;60995;52.154;4.498;2023-08-08T02:12:09;101969.41;;;18.44;100.00
72414;BME280;60995;52.154;4.498;2023-08-08T02:14:25;101978.16;;;18.40;100.00
72414;BME280;60995;52.154;4.498;2023-08-08T02:16:41;101990.00;;;18.40;100.00
72414;BME280;60995;52.154;4.498;2023-08-08T02:18:58;102000.78;;;18.33;100.00
72414;BME280;60995;52.154;4.498;2023-08-08T02:21:14;102017.22;;;18.25;100.00
72414;BME280;60995;52.154;4.498;2023-08-08T02:23:31;102022.72;;;18.25;100.00
72414;BME280;60995;52.154;4.498;2023-08-08T02:25:47;102021.22;;;18.13;100.00
72414;BME280;60995;52.154;4.498;2023-08-08T02:28:03;102022.63;;;18.17;100.00
72414;BME280;60995;52.154;4.498;2023-08-08T02:30:20;102027.03;;;18.10;100.00
72414;BME280;60995;52.154;4.498;2023-08-08T02:32:36;102027.81;;;18.02;100.00
72414;BME280;60995;52.154;4.498;2023-08-08T02:34:52;102030.47;;;18.12;100.00
72414;BME280;60995;52.154;4.498;2023-08-08T02:37:09;102032.44;;;18.19;100.00
72414;BME280;60995;52.154;4.498;2023-08-08T02:39:25;102032.03;;;18.32;100.00
72414;BME280;60995;52.154;4.498;2023-08-08T02:41:41;102016.09;;;18.36;100.00
72414;BME280;60995;52.154;4.498;2023-08-08T02:43:58;102008.97;;;18.25;100.00
72414;BME280;60995;52.154;4.498;2023-08-08T02:46:14;102001.38;;;18.01;100.00
72414;BME280;60995;52.154;4.498;2023-08-08T02:48:31;102017.44;;;18.14;100.00
72414;BME280;60995;52.154;4.498;2023-08-08T02:50:48;102029.78;;;18.10;100.00
72414;BME280;60995;52.154;4.498;2023-08-08T02:53:04;102038.25;;;17.98;100.00
72414;BME280;60995;52.154;4.498;2023-08-08T02:55:21;102054.34;;;17.93;100.00
72414;BME280;60995;52.154;4.498;2023-08-08T02:57:37;102055.56;;;17.81;100.00
72414;BME280;60995;52.154;4.498;2023-08-08T02:59:53;102071.00;;;17.82;100.00
72414;BME280;60995;52.154;4.498;2023-08-08T03:02:09;102066.38;;;17.82;100.00
72414;BME280;60995;52.154;4.498;2023-08-08T03:04:25;102073.28;;;17.86;100.00
72414;BME280;60995;52.154;4.498;2023-08-08T03:06:43;102072.66;;;17.75;100.00
72414;BME280;60995;52.154;4.498;2023-08-08T03:08:59;102073.59;;;17.65;100.00
72414;BME280;60995;52.154;4.498;2023-08-08T03:11:17;102079.00;;;17.75;100.00
72414;BME280;60995;52.154;4.498;2023-08-08T03:13:33;102074.06;;;17.79;100.00
72414;BME280;60995;52.154;4.498;2023-08-08T03:15:49;102061.66;;;17.75;100.00
72414;BME280;60995;52.154;4.498;2023-08-08T03:18:05;102053.34;;;17.66;100.00
72414;BME280;60995;52.154;4.498;2023-08-08T03:20:22;102045.50;;;17.72;100.00
72414;BME280;60995;52.154;4.498;2023-08-08T03:22:38;102046.66;;;17.69;100.00
72414;BME280;60995;52.154;4.498;2023-08-08T03:24:54;102052.31;;;17.67;100.00
72414;BME280;60995;52.154;4.498;2023-08-08T03:27:10;102035.44;;;17.62;100.00
72414;BME280;60995;52.154;4.498;2023-08-08T03:29:27;102048.69;;;17.49;100.00
72414;BME280;60995;52.154;4.498;2023-08-08T03:31:43;102046.88;;;17.40;100.00
72414;BME280;60995;52.154;4.498;2023-08-08T03:33:59;102066.22;;;17.38;100.00
72414;BME280;60995;52.154;4.498;2023-08-08T03:36:15;102062.50;;;17.29;100.00
72414;BME280;60995;52.154;4.498;2023-08-08T03:38:32;102078.72;;;17.23;100.00
72414;BME280;60995;52.154;4.498;2023-08-08T03:40:48;102073.16;;;17.32;100.00
72414;BME280;60995;52.154;4.498;2023-08-08T03:43:04;102078.97;;;17.29;100.00
72414;BME280;60995;52.154;4.498;2023-08-08T03:45:21;102062.50;;;17.29;100.00
72414;BME280;60995;52.154;4.498;2023-08-08T03:47:37;102066.16;;;17.20;100.00
72414;BME280;60995;52.154;4.498;2023-08-08T03:49:55;102051.03;;;17.16;100.00
72414;BME280;60995;52.154;4.498;2023-08-08T03:52:13;102034.50;;;17.26;100.00
72414;BME280;60995;52.154;4.498;2023-08-08T03:54:29;102003.00;;;17.12;100.00
72414;BME280;60995;52.154;4.498;2023-08-08T03:56:45;101976.06;;;17.25;100.00
72414;BME280;60995;52.154;4.498;2023-08-08T03:59:01;101952.22;;;17.26;100.00
72414;BME280;60995;52.154;4.498;2023-08-08T04:01:18;101925.53;;;17.28;100.00
72414;BME280;60995;52.154;4.498;2023-08-08T04:03:34;101912.66;;;17.28;100.00
72414;BME280;60995;52.154;4.498;2023-08-08T04:05:51;101912.75;;;17.36;100.00
72414;BME280;60995;52.154;4.498;2023-08-08T04:08:07;101915.50;;;17.36;100.00
72414;BME280;60995;52.154;4.498;2023-08-08T04:10:23;101913.66;;;17.27;100.00
72414;BME280;60995;52.154;4.498;2023-08-08T04:12:40;101918.31;;;17.27;100.00
72414;BME280;60995;52.154;4.498;2023-08-08T04:14:56;101922.22;;;17.24;100.00
72414;BME280;60995;52.154;4.498;2023-08-08T04:17:12;101924.97;;;17.24;100.00
72414;BME280;60995;52.154;4.498;2023-08-08T04:19:28;101921.59;;;17.30;100.00
72414;BME280;60995;52.154;4.498;2023-08-08T04:21:44;101927.78;;;17.32;100.00
72414;BME280;60995;52.154;4.498;2023-08-08T04:24:01;101915.50;;;17.36;100.00
72414;BME280;60995;52.154;4.498;2023-08-08T04:26:18;101909.22;;;17.26;100.00
72414;BME280;60995;52.154;4.498;2023-08-08T04:28:34;101914.72;;;17.26;100.00
72414;BME280;60995;52.154;4.498;2023-08-08T04:30:50;101906.56;;;17.34;100.00
72414;BME280;60995;52.154;4.498;2023-08-08T04:33:06;101902.56;;;17.29;100.00
72414;BME280;60995;52.154;4.498;2023-08-08T04:35:23;101873.56;;;17.26;100.00
72414;BME280;60995;52.154;4.498;2023-08-08T04:37:39;101888.53;;;17.50;100.00
72414;BME280;60995;52.154;4.498;2023-08-08T04:39:55;101883.66;;;17.44;100.00
72414;BME280;60995;52.154;4.498;2023-08-08T04:42:12;101896.03;;;17.48;100.00
72414;BME280;60995;52.154;4.498;2023-08-08T04:44:28;101895.75;;;17.51;100.00
72414;BME280;60995;52.154;4.498;2023-08-08T04:46:45;101895.81;;;17.59;100.00
72414;BME280;60995;52.154;4.498;2023-08-08T04:49:01;101890.78;;;17.73;100.00
72414;BME280;60995;52.154;4.498;2023-08-08T04:51:17;101868.78;;;17.91;100.00
72414;BME280;60995;52.154;4.498;2023-08-08T04:53:33;101855.69;;;17.84;100.00
72414;BME280;60995;52.154;4.498;2023-08-08T04:55:50;101842.28;;;17.81;100.00
72414;BME280;60995;52.154;4.498;2023-08-08T04:58:06;101831.19;;;17.91;100.00
72414;BME280;60995;52.154;4.498;2023-08-08T05:00:22;101816.66;;;17.73;100.00
72414;BME280;60995;52.154;4.498;2023-08-08T05:02:39;101808.81;;;17.78;100.00
72414;BME280;60995;52.154;4.498;2023-08-08T05:04:56;101809.72;;;17.60;100.00
72414;BME280;60995;52.154;4.498;2023-08-08T05:07:13;101808.16;;;17.58;100.00
72414;BME280;60995;52.154;4.498;2023-08-08T05:09:29;101791.31;;;17.52;100.00
72414;BME280;60995;52.154;4.498;2023-08-08T05:11:45;101784.47;;;17.57;100.00
72414;BME280;60995;52.154;4.498;2023-08-08T05:14:02;101777.84;;;17.67;100.00
72414;BME280;60995;52.154;4.498;2023-08-08T05:16:18;101778.91;;;17.66;100.00
72414;BME280;60995;52.154;4.498;2023-08-08T05:18:34;101770.28;;;17.88;100.00
72414;BME280;60995;52.154;4.498;2023-08-08T05:20:51;101765.56;;;17.98;100.00
72414;BME280;60995;52.154;4.498;2023-08-08T05:23:07;101753.41;;;18.09;100.00
72414;BME280;60995;52.154;4.498;2023-08-08T05:25:23;101752.78;;;18.23;100.00
72414;BME280;60995;52.154;4.498;2023-08-08T05:27:39;101753.59;;;18.15;100.00
72414;BME280;60995;52.154;4.498;2023-08-08T05:29:56;101747.91;;;18.09;100.00
72414;BME280;60995;52.154;4.498;2023-08-08T05:32:12;101747.94;;;18.17;100.00
72414;BME280;60995;52.154;4.498;2023-08-08T05:34:28;101724.97;;;18.26;100.00
72414;BME280;60995;52.154;4.498;2023-08-08T05:36:44;101697.41;;;18.69;100.00
72414;BME280;60995;52.154;4.498;2023-08-08T05:39:01;101697.81;;;18.99;100.00
72414;BME280;60995;52.154;4.498;2023-08-08T05:41:17;101678.84;;;18.88;100.00
72414;BME280;60995;52.154;4.498;2023-08-08T05:43:33;101677.84;;;19.30;100.00
72414;BME280;60995;52.154;4.498;2023-08-08T05:45:49;101679.72;;;19.21;100.00
72414;BME280;60995;52.154;4.498;2023-08-08T05:48:06;101687.66;;;19.08;100.00
72414;BME280;60995;52.154;4.498;2023-08-08T05:50:23;101679.72;;;19.29;100.00
72414;BME280;60995;52.154;4.498;2023-08-08T05:52:39;101674.09;;;19.06;100.00
72414;BME280;60995;52.154;4.498;2023-08-08T05:54:55;101672.31;;;19.30;100.00
72414;BME280;60995;52.154;4.498;2023-08-08T05:57:12;101656.97;;;20.31;100.00
72414;BME280;60995;52.154;4.498;2023-08-08T05:59:28;101629.63;;;20.68;100.00
72414;BME280;60995;52.154;4.498;2023-08-08T06:01:44;101594.34;;;22.13;100.00
72414;BME280;60995;52.154;4.498;2023-08-08T06:04:02;101556.72;;;24.02;100.00
72414;BME280;60995;52.154;4.498;2023-08-08T06:06:19;101534.69;;;25.41;100.00
72414;BME280;60995;52.154;4.498;2023-08-08T06:08:35;101502.59;;;26.48;100.00
72414;BME280;60995;52.154;4.498;2023-08-08T06:10:51;101483.50;;;27.94;100.00
72414;BME280;60995;52.154;4.498;2023-08-08T06:13:08;101450.97;;;28.77;100.00
72414;BME280;60995;52.154;4.498;2023-08-08T06:15:24;101416.53;;;28.24;100.00
72414;BME280;60995;52.154;4.498;2023-08-08T06:17:40;101366.88;;;29.60;94.23
72414;BME280;60995;52.154;4.498;2023-08-08T06:19:56;101311.56;;;28.87;90.73
72414;BME280;60995;52.154;4.498;2023-08-08T06:22:13;101302.94;;;28.36;90.92
72414;BME280;60995;52.154;4.498;2023-08-08T06:24:29;101296.91;;;28.16;90.26
72414;BME280;60995;52.154;4.498;2023-08-08T06:26:45;101293.88;;;28.05;89.75
72414;BME280;60995;52.154;4.498;2023-08-08T06:29:01;101292.72;;;28.95;84.47
72414;BME280;60995;52.154;4.498;2023-08-08T06:31:18;101289.88;;;28.78;82.83
72414;BME280;60995;52.154;4.498;2023-08-08T06:33:35;101280.03;;;29.67;80.90
72414;BME280;60995;52.154;4.498;2023-08-08T06:35:51;101286.19;;;30.42;77.18
72414;BME280;60995;52.154;4.498;2023-08-08T06:38:08;101273.28;;;31.13;73.09
72414;BME280;60995;52.154;4.498;2023-08-08T06:40:24;101268.69;;;31.61;70.14
72414;BME280;60995;52.154;4.498;2023-08-08T06:42:41;101274.22;;;30.25;75.09
72414;BME280;60995;52.154;4.498;2023-08-08T06:44:58;101275.34;;;28.93;78.13
72414;BME280;60995;52.154;4.498;2023-08-08T06:47:14;101272.59;;;29.90;75.18
72414;BME280;60995;52.154;4.498;2023-08-08T06:49:30;101271.16;;;30.48;73.08
72414;BME280;60995;52.154;4.498;2023-08-08T06:51:46;101279.84;;;29.57;75.45
72414;BME280;60995;52.154;4.498;2023-08-08T06:54:03;101281.16;;;30.44;74.79
72414;BME280;60995;52.154;4.498;2023-08-08T06:56:19;101268.75;;;31.07;71.61
72414;BME280;60995;52.154;4.498;2023-08-08T06:58:35;101268.16;;;30.55;71.42
72414;BME280;60995;52.154;4.498;2023-08-08T07:00:52;101264.97;;;32.36;66.59
72414;BME280;60995;52.154;4.498;2023-08-08T07:03:08;101261.53;;;33.44;61.46
72414;BME280;60995;52.154;4.498;2023-08-08T07:05:24;101272.69;;;34.92;57.45
72414;BME280;60995;52.154;4.498;2023-08-08T07:07:41;101268.28;;;33.84;56.83
72414;BME280;60995;52.154;4.498;2023-08-08T07:09:58;101279.97;;;32.14;60.61
72414;BME280;60995;52.154;4.498;2023-08-08T07:12:14;101278.84;;;29.46;68.68
72414;BME280;60995;52.154;4.498;2023-08-08T07:14:33;101272.38;;;30.13;68.58
72414;BME280;60995;52.154;4.498;2023-08-08T07:16:50;101282.91;;;29.89;69.40
72414;BME280;60995;52.154;4.498;2023-08-08T07:19:06;101272.50;;;31.82;64.77
72414;BME280;60995;52.154;4.498;2023-08-08T07:21:22;101272.06;;;30.54;66.97
72414;BME280;60995;52.154;4.498;2023-08-08T07:23:38;101265.19;;;32.24;63.89
72414;BME280;60995;52.154;4.498;2023-08-08T07:25:55;101267.63;;;32.15;60.35
72414;BME280;60995;52.154;4.498;2023-08-08T07:28:11;101269.50;;;30.30;65.82
72414;BME280;60995;52.154;4.498;2023-08-08T07:30:27;101271.34;;;30.64;64.88
72414;BME280;60995;52.154;4.498;2023-08-08T07:32:43;101269.91;;;30.39;65.02
72414;BME280;60995;52.154;4.498;2023-08-08T07:35:00;101258.03;;;31.31;64.20
72414;BME280;60995;52.154;4.498;2023-08-08T07:37:21;101268.66;;;29.91;67.24
72414;BME280;60995;52.154;4.498;2023-08-08T07:39:37;101264.47;;;30.77;65.97
72414;BME280;60995;52.154;4.498;2023-08-08T07:41:54;101255.22;;;28.91;70.48
72414;BME280;60995;52.154;4.498;2023-08-08T07:44:10;101273.72;;;27.44;77.40
72414;BME280;60995;52.154;4.498;2023-08-08T07:46:26;101260.72;;;29.48;72.48
72414;BME280;60995;52.154;4.498;2023-08-08T07:48:43;101260.88;;;30.54;69.41
72414;BME280;60995;52.154;4.498;2023-08-08T07:50:59;101246.28;;;30.30;69.63
72414;BME280;60995;52.154;4.498;2023-08-08T07:53:15;101265.28;;;27.51;77.64
72414;BME280;60995;52.154;4.498;2023-08-08T07:55:31;101262.22;;;28.64;76.33
72414;BME280;60995;52.154;4.498;2023-08-08T07:57:48;101281.00;;;26.35;81.45
72414;BME280;60995;52.154;4.498;2023-08-08T08:00:05;101276.91;;;26.19;82.43
72414;BME280;60995;52.154;4.498;2023-08-08T08:02:28;101268.47;;;27.36;80.57
72414;BME280;60995;52.154;4.498;2023-08-08T08:04:45;101277.84;;;27.11;80.76
72414;BME280;60995;52.154;4.498;2023-08-08T08:07:02;101273.88;;;25.77;85.87
72414;BME280;60995;52.154;4.498;2023-08-08T08:09:18;101281.81;;;27.03;81.93
72414;BME280;60995;52.154;4.498;2023-08-08T08:11:34;101272.06;;;28.55;77.89
72414;BME280;60995;52.154;4.498;2023-08-08T08:13:51;101285.91;;;28.62;78.36
72414;BME280;60995;52.154;4.498;2023-08-08T08:16:07;101278.44;;;29.08;75.86
72414;BME280;60995;52.154;4.498;2023-08-08T08:18:23;101271.50;;;29.11;74.75
72414;BME280;60995;52.154;4.498;2023-08-08T08:20:40;101268.16;;;29.26;74.22
72414;BME280;60995;52.154;4.498;2023-08-08T08:22:56;101272.66;;;27.93;77.27
72414;BME280;60995;52.154;4.498;2023-08-08T08:25:13;101279.63;;;27.36;80.40
72414;BME280;60995;52.154;4.498;2023-08-08T08:27:30;101272.78;;;28.21;78.76
72414;BME280;60995;52.154;4.498;2023-08-08T08:29:46;101283.78;;;27.45;80.52
72414;BME280;60995;52.154;4.498;2023-08-08T08:32:03;101285.72;;;25.91;84.63
72414;BME280;60995;52.154;4.498;2023-08-08T08:34:20;101287.91;;;25.32;90.03
72414;BME280;60995;52.154;4.498;2023-08-08T08:36:36;101286.84;;;25.65;88.51
72414;BME280;60995;52.154;4.498;2023-08-08T08:38:52;101285.41;;;25.23;90.47
72414;BME280;60995;52.154;4.498;2023-08-08T08:41:11;101290.31;;;25.79;89.97
72414;BME280;60995;52.154;4.498;2023-08-08T08:43:31;101282.75;;;26.97;84.77
72414;BME280;60995;52.154;4.498;2023-08-08T08:45:51;101285.06;;;26.51;81.36
72414;BME280;60995;52.154;4.498;2023-08-08T08:48:10;101298.47;;;27.52;80.09
72414;BME280;60995;52.154;4.498;2023-08-08T08:50:27;101286.13;;;28.72;76.19
72414;BME280;60995;52.154;4.498;2023-08-08T08:52:47;101289.44;;;28.69;74.56
72414;BME280;60995;52.154;4.498;2023-08-08T08:55:04;101279.81;;;30.69;69.57
72414;BME280;60995;52.154;4.498;2023-08-08T08:57:21;101276.66;;;30.88;67.03
72414;BME280;60995;52.154;4.498;2023-08-08T08:59:39;101288.78;;;29.08;71.99
72414;BME280;60995;52.154;4.498;2023-08-08T09:01:56;101288.31;;;28.17;73.25
72414;BME280;60995;52.154;4.498;2023-08-08T09:04:14;101308.88;;;27.69;74.62
72414;BME280;60995;52.154;4.498;2023-08-08T09:06:34;101304.53;;;26.70;77.05
72414;BME280;60995;52.154;4.498;2023-08-08T09:08:51;101301.63;;;27.68;75.83
72414;BME280;60995;52.154;4.498;2023-08-08T09:11:07;101298.69;;;26.41;78.95
72414;BME280;60995;52.154;4.498;2023-08-08T09:13:24;101300.75;;;25.83;81.62
72414;BME280;60995;52.154;4.498;2023-08-08T09:15:47;101302.53;;;25.52;83.65
72414;BME280;60995;52.154;4.498;2023-08-08T09:18:04;101299.69;;;26.28;81.65
72414;BME280;60995;52.154;4.498;2023-08-08T09:20:25;101285.25;;;27.83;76.81
72414;BME280;60995;52.154;4.498;2023-08-08T09:22:43;101287.91;;;27.54;76.67
72414;BME280;60995;52.154;4.498;2023-08-08T09:25:01;101288.66;;;27.85;75.82
72414;BME280;60995;52.154;4.498;2023-08-08T09:27:18;101308.53;;;27.53;77.33
72414;BME280;60995;52.154;4.498;2023-08-08T09:29:34;101309.69;;;26.73;79.26
72414;BME280;60995;52.154;4.498;2023-08-08T09:31:50;101302.22;;;27.94;76.69
72414;BME280;60995;52.154;4.498;2023-08-08T09:34:07;101298.34;;;27.95;75.84
72414;BME280;60995;52.154;4.498;2023-08-08T09:36:23;101299.19;;;28.83;72.97
72414;BME280;60995;52.154;4.498;2023-08-08T09:38:40;101307.50;;;28.02;74.86
72414;BME280;60995;52.154;4.498;2023-08-08T09:40:56;101311.22;;;27.96;74.16
72414;BME280;60995;52.154;4.498;2023-08-08T09:43:12;101308.56;;;28.13;74.78
72414;BME280;60995;52.154;4.498;2023-08-08T09:45:38;101298.28;;;29.24;73.14
72414;BME280;60995;52.154;4.498;2023-08-08T09:47:58;101314.91;;;30.15;72.47
72414;BME280;60995;52.154;4.498;2023-08-08T09:50:15;101302.69;;;29.19;71.11
72414;BME280;60995;52.154;4.498;2023-08-08T09:52:35;101312.53;;;28.41;73.75
72414;BME280;60995;52.154;4.498;2023-08-08T09:54:55;101302.09;;;27.88;76.77
72414;BME280;60995;52.154;4.498;2023-08-08T09:57:12;101312.25;;;27.47;76.73
72414;BME280;60995;52.154;4.498;2023-08-08T09:59:29;101323.72;;;26.41;80.45
72414;BME280;60995;52.154;4.498;2023-08-08T10:01:46;101329.31;;;24.49;87.87
72414;BME280;60995;52.154;4.498;2023-08-08T10:04:05;101317.81;;;24.98;87.62
72414;BME280;60995;52.154;4.498;2023-08-08T10:06:22;101315.50;;;25.84;85.93
72414;BME280;60995;52.154;4.498;2023-08-08T10:08:38;101317.47;;;25.51;84.68
72414;BME280;60995;52.154;4.498;2023-08-08T10:10:55;101319.25;;;25.14;86.63
72414;BME280;60995;52.154;4.498;2023-08-08T10:13:22;101322.38;;;24.85;88.68
72414;BME280;60995;52.154;4.498;2023-08-08T10:15:40;101307.34;;;25.38;87.97
72414;BME280;60995;52.154;4.498;2023-08-08T10:17:57;101315.28;;;25.35;88.23
72414;BME280;60995;52.154;4.498;2023-08-08T10:20:14;101316.50;;;24.48;94.59
72414;BME280;60995;52.154;4.498;2023-08-08T10:22:33;101309.66;;;25.41;93.72
72414;BME280;60995;52.154;4.498;2023-08-08T10:24:54;101311.88;;;24.28;94.70
72414;BME280;60995;52.154;4.498;2023-08-08T10:27:11;101319.19;;;25.20;90.72
72414;BME280;60995;52.154;4.498;2023-08-08T10:29:28;101323.19;;;25.63;90.97
72414;BME280;60995;52.154;4.498;2023-08-08T10:32:00;101312.28;;;26.68;86.79
72414;BME280;60995;52.154;4.498;2023-08-08T10:34:27;101308.56;;;26.18;86.78
72414;BME280;60995;52.154;4.498;2023-08-08T10:37:05;101308.00;;;27.14;84.32
72414;BME280;60995;52.154;4.498;2023-08-08T10:39:26;101302.41;;;26.35;84.70
72414;BME280;60995;52.154;4.498;2023-08-08T10:41:50;101306.72;;;25.36;85.27
72414;BME280;60995;52.154;4.498;2023-08-08T10:44:08;101312.38;;;25.16;86.18
72414;BME280;60995;52.154;4.498;2023-08-08T10:46:27;101310.69;;;25.15;86.07
72414;BME280;60995;52.154;4.498;2023-08-08T10:48:52;101307.47;;;23.94;89.62
72414;BME280;60995;52.154;4.498;2023-08-08T10:51:18;101303.81;;;25.18;87.61
72414;BME280;60995;52.154;4.498;2023-08-08T10:53:36;101308.38;;;25.44;88.93
72414;BME280;60995;52.154;4.498;2023-08-08T10:56:00;101313.22;;;26.43;86.06
72414;BME280;60995;52.154;4.498;2023-08-08T10:58:17;101309.59;;;26.61;84.46
72414;BME280;60995;52.154;4.498;2023-08-08T11:00:37;101316.63;;;26.64;83.30
72414;BME280;60995;52.154;4.498;2023-08-08T11:02:56;101308.50;;;26.25;84.55
72414;BME280;60995;52.154;4.498;2023-08-08T11:05:14;101315.16;;;25.48;87.76
72414;BME280;60995;52.154;4.498;2023-08-08T11:07:31;101297.69;;;25.91;86.00
72414;BME280;60995;52.154;4.498;2023-08-08T11:09:48;101293.78;;;27.34;82.51
72414;BME280;60995;52.154;4.498;2023-08-08T11:12:05;101310.06;;;27.07;82.58
72414;BME280;60995;52.154;4.498;2023-08-08T11:14:23;101312.31;;;28.06;81.42
72414;BME280;60995;52.154;4.498;2023-08-08T11:16:40;101303.06;;;27.16;80.59
72414;BME280;60995;52.154;4.498;2023-08-08T11:18:57;101318.44;;;26.70;83.04
72414;BME280;60995;52.154;4.498;2023-08-08T11:21:13;101308.34;;;26.20;85.36
72414;BME280;60995;52.154;4.498;2023-08-08T11:23:30;101309.97;;;26.46;84.64
72414;BME280;60995;52.154;4.498;2023-08-08T11:25:47;101312.13;;;26.81;84.44
72414;BME280;60995;52.154;4.498;2023-08-08T11:28:05;101315.84;;;26.19;87.03
72414;BME280;60995;52.154;4.498;2023-08-08T11:30:22;101314.69;;;25.58;86.19
72414;BME280;60995;52.154;4.498;2023-08-08T11:32:39;101323.06;;;25.76;86.02
72414;BME280;60995;52.154;4.498;2023-08-08T11:34:56;101312.59;;;26.78;83.98
72414;BME280;60995;52.154;4.498;2023-08-08T11:37:13;101314.44;;;26.47;84.55
72414;BME280;60995;52.154;4.498;2023-08-08T11:39:32;101307.59;;;26.31;85.78
72414;BME280;60995;52.154;4.498;2023-08-08T11:41:48;101305.72;;;26.81;85.95
72414;BME280;60995;52.154;4.498;2023-08-08T11:44:06;101306.03;;;26.54;84.50
72414;BME280;60995;52.154;4.498;2023-08-08T11:46:25;101315.34;;;26.97;84.10
72414;BME280;60995;52.154;4.498;2023-08-08T11:48:42;101309.91;;;25.90;86.66
72414;BME280;60995;52.154;4.498;2023-08-08T11:50:58;101314.56;;;25.46;87.53
72414;BME280;60995;52.154;4.498;2023-08-08T11:53:14;101318.72;;;24.91;89.55
72414;BME280;60995;52.154;4.498;2023-08-08T11:55:31;101311.56;;;25.09;89.06